sensor_id;sensor_type;location;lat;lon;timestamp;pressure;altitude;pressure_sealevel;temperature;humidity
63954;BME280;50128;52.094;5.232;2022-09-20T00:00:36;102182.0;;;11.76;94.52
63954;BME280;50128;52.094;5.232;2022-09-20T00:02:12;102181.0;;;11.74;95.12
63954;BME280;50128;52.094;5.232;2022-09-20T00:05:29;102181.0;;;11.73;95.04
63954;BME280;50128;52.094;5.232;2022-09-20T00:07:08;102181.0;;;11.76;94.83
63954;BME280;50128;52.094;5.232;2022-09-20T00:08:44;102173.0;;;11.72;94.55
63954;BME280;50128;52.094;5.232;2022-09-20T00:10:23;102172.0;;;11.68;94.23
63954;BME280;50128;52.094;5.232;2022-09-20T00:13:36;102170.0;;;11.7;94.18
63954;BME280;50128;52.094;5.232;2022-09-20T00:15:14;102173.0;;;11.62;94.22
63954;BME280;50128;52.094;5.232;2022-09-20T00:16:51;102176.0;;;11.61;94.57
63954;BME280;50128;52.094;5.232;2022-09-20T00:20:04;102181.0;;;11.53;94.55
63954;BME280;50128;52.094;5.232;2022-09-20T00:21:41;102184.0;;;11.47;95.12
63954;BME280;50128;52.094;5.232;2022-09-20T00:23:17;102185.0;;;11.42;94.71
63954;BME280;50128;52.094;5.232;2022-09-20T00:24:54;102181.0;;;11.36;94.44
63954;BME280;50128;52.094;5.232;2022-09-20T00:28:07;102181.0;;;11.25;95.16
63954;BME280;50128;52.094;5.232;2022-09-20T00:29:45;102184.0;;;11.21;95.04
63954;BME280;50128;52.094;5.232;2022-09-20T00:31:21;102180.0;;;11.16;94.73
63954;BME280;50128;52.094;5.232;2022-09-20T00:35:37;102185.0;;;11.12;95.41
63954;BME280;50128;52.094;5.232;2022-09-20T00:37:13;102185.0;;;11.07;94.88
63954;BME280;50128;52.094;5.232;2022-09-20T00:38:54;102189.0;;;11.01;96.0
63954;BME280;50128;52.094;5.232;2022-09-20T00:40:30;102188.0;;;10.92;95.26
63954;BME280;50128;52.094;5.232;2022-09-20T00:42:10;102185.0;;;10.89;95.32
63954;BME280;50128;52.094;5.232;2022-09-20T00:43:48;102185.0;;;10.87;94.92
63954;BME280;50128;52.094;5.232;2022-09-20T00:47:03;102189.0;;;10.81;95.73
63954;BME280;50128;52.094;5.232;2022-09-20T00:48:42;102188.0;;;10.78;96.1
63954;BME280;50128;52.094;5.232;2022-09-20T00:50:26;102185.0;;;10.75;95.96
63954;BME280;50128;52.094;5.232;2022-09-20T00:52:06;102187.0;;;10.77;96.45
63954;BME280;50128;52.094;5.232;2022-09-20T00:55:24;102188.0;;;10.78;97.16
63954;BME280;50128;52.094;5.232;2022-09-20T00:57:03;102195.0;;;10.87;96.69
63954;BME280;50128;52.094;5.232;2022-09-20T00:58:42;102196.0;;;10.92;96.45
63954;BME280;50128;52.094;5.232;2022-09-20T01:00:25;102193.0;;;10.93;97.53
63954;BME280;50128;52.094;5.232;2022-09-20T01:03:46;102191.0;;;10.95;97.86
63954;BME280;50128;52.094;5.232;2022-09-20T01:05:23;102189.0;;;10.97;97.53
63954;BME280;50128;52.094;5.232;2022-09-20T01:07:02;102192.0;;;11.03;96.84
63954;BME280;50128;52.094;5.232;2022-09-20T01:10:22;102188.0;;;11.09;97.65
63954;BME280;50128;52.094;5.232;2022-09-20T01:12:02;102185.0;;;11.11;97.81
63954;BME280;50128;52.094;5.232;2022-09-20T01:13:40;102184.0;;;11.11;97.87
63954;BME280;50128;52.094;5.232;2022-09-20T01:15:17;102182.0;;;11.13;97.77
63954;BME280;50128;52.094;5.232;2022-09-20T01:18:38;102177.0;;;11.14;97.59
63954;BME280;50128;52.094;5.232;2022-09-20T01:20:19;102176.0;;;11.2;97.55
63954;BME280;50128;52.094;5.232;2022-09-20T01:21:58;102176.0;;;11.18;97.68
63954;BME280;50128;52.094;5.232;2022-09-20T01:23:44;102177.0;;;11.25;97.34
63954;BME280;50128;52.094;5.232;2022-09-20T01:28:32;102174.0;;;11.3;97.61
63954;BME280;50128;52.094;5.232;2022-09-20T01:30:12;102176.0;;;11.32;97.88
63954;BME280;50128;52.094;5.232;2022-09-20T01:31:53;102173.0;;;11.35;97.59
63954;BME280;50128;52.094;5.232;2022-09-20T01:35:19;102180.0;;;11.37;97.05
63954;BME280;50128;52.094;5.232;2022-09-20T01:37:04;102183.0;;;11.38;97.53
63954;BME280;50128;52.094;5.232;2022-09-20T01:40:51;102182.0;;;11.43;96.95
63954;BME280;50128;52.094;5.232;2022-09-20T01:42:37;102188.0;;;11.4;97.03
63954;BME280;50128;52.094;5.232;2022-09-20T01:46:13;102187.0;;;11.43;97.08
63954;BME280;50128;52.094;5.232;2022-09-20T01:48:04;102185.0;;;11.45;96.74
63954;BME280;50128;52.094;5.232;2022-09-20T01:49:48;102187.0;;;11.47;97.04
63954;BME280;50128;52.094;5.232;2022-09-20T01:52:10;102188.0;;;11.49;96.68
63954;BME280;50128;52.094;5.232;2022-09-20T01:54:45;102186.0;;;11.59;96.61
63954;BME280;50128;52.094;5.232;2022-09-20T01:59:15;102185.0;;;11.59;96.61
63954;BME280;50128;52.094;5.232;2022-09-20T02:04:31;102181.0;;;11.62;96.35
63954;BME280;50128;52.094;5.232;2022-09-20T02:05:31;102180.0;;;11.61;96.84
63954;BME280;50128;52.094;5.232;2022-09-20T02:07:55;102177.0;;;11.63;97.03
63954;BME280;50128;52.094;5.232;2022-09-20T02:13:27;102176.0;;;11.52;96.5
63954;BME280;50128;52.094;5.232;2022-09-20T02:15:13;102173.0;;;11.53;96.4
63954;BME280;50128;52.094;5.232;2022-09-20T02:17:07;102172.0;;;11.56;96.41
63954;BME280;50128;52.094;5.232;2022-09-20T02:18:58;102172.0;;;11.54;96.77
63954;BME280;50128;52.094;5.232;2022-09-20T02:20:47;102175.0;;;11.6;97.03
63954;BME280;50128;52.094;5.232;2022-09-20T02:22:40;102171.0;;;11.7;96.75
63954;BME280;50128;52.094;5.232;2022-09-20T02:24:26;102167.0;;;11.62;97.31
63954;BME280;50128;52.094;5.232;2022-09-20T02:28:15;102166.0;;;11.61;97.39
63954;BME280;50128;52.094;5.232;2022-09-20T02:30:11;102163.0;;;11.61;97.05
63954;BME280;50128;52.094;5.232;2022-09-20T02:31:59;102164.0;;;11.62;96.8
63954;BME280;50128;52.094;5.232;2022-09-20T02:34:00;102168.0;;;11.59;97.06
63954;BME280;50128;52.094;5.232;2022-09-20T02:35:54;102174.0;;;11.59;97.35
63954;BME280;50128;52.094;5.232;2022-09-20T02:37:49;102176.0;;;11.6;96.92
63954;BME280;50128;52.094;5.232;2022-09-20T02:40:37;102176.0;;;11.54;96.9
63954;BME280;50128;52.094;5.232;2022-09-20T02:42:38;102174.0;;;11.53;96.73
63954;BME280;50128;52.094;5.232;2022-09-20T02:44:27;102175.0;;;11.48;96.72
63954;BME280;50128;52.094;5.232;2022-09-20T02:46:15;102175.0;;;11.47;96.97
63954;BME280;50128;52.094;5.232;2022-09-20T02:48:02;102181.0;;;11.47;97.44
63954;BME280;50128;52.094;5.232;2022-09-20T02:49:50;102177.0;;;11.47;97.45
63954;BME280;50128;52.094;5.232;2022-09-20T02:51:34;102174.0;;;11.46;97.49
63954;BME280;50128;52.094;5.232;2022-09-20T02:55:13;102177.0;;;11.43;97.38
63954;BME280;50128;52.094;5.232;2022-09-20T02:56:57;102178.0;;;11.47;97.74
63954;BME280;50128;52.094;5.232;2022-09-20T02:58:45;102177.0;;;11.43;97.12
63954;BME280;50128;52.094;5.232;2022-09-20T03:00:31;102176.0;;;11.46;96.82
63954;BME280;50128;52.094;5.232;2022-09-20T03:02:22;102180.0;;;11.42;96.78
63954;BME280;50128;52.094;5.232;2022-09-20T03:04:13;102180.0;;;11.4;96.98
63954;BME280;50128;52.094;5.232;2022-09-20T03:06:02;102180.0;;;11.41;96.42
63954;BME280;50128;52.094;5.232;2022-09-20T03:09:43;102180.0;;;11.3;97.08
63954;BME280;50128;52.094;5.232;2022-09-20T03:11:42;102181.0;;;11.27;96.87
63954;BME280;50128;52.094;5.232;2022-09-20T03:13:32;102177.0;;;11.23;97.14
63954;BME280;50128;52.094;5.232;2022-09-20T03:15:25;102178.0;;;11.27;97.35
63954;BME280;50128;52.094;5.232;2022-09-20T03:17:15;102181.0;;;11.21;97.8
63954;BME280;50128;52.094;5.232;2022-09-20T03:18:59;102180.0;;;11.2;97.97
63954;BME280;50128;52.094;5.232;2022-09-20T03:20:49;102180.0;;;11.22;97.86
63954;BME280;50128;52.094;5.232;2022-09-20T03:24:32;102178.0;;;11.16;97.3
63954;BME280;50128;52.094;5.232;2022-09-20T03:26:22;102182.0;;;11.15;97.63
63954;BME280;50128;52.094;5.232;2022-09-20T03:28:15;102182.0;;;11.14;97.14
63954;BME280;50128;52.094;5.232;2022-09-20T03:30:12;102183.0;;;11.16;96.81
63954;BME280;50128;52.094;5.232;2022-09-20T03:32:08;102183.0;;;11.12;96.55
63954;BME280;50128;52.094;5.232;2022-09-20T03:33:54;102182.0;;;11.07;97.19
63954;BME280;50128;52.094;5.232;2022-09-20T03:35:50;102180.0;;;11.0;96.93
63954;BME280;50128;52.094;5.232;2022-09-20T03:37:48;102175.0;;;10.91;96.91
63954;BME280;50128;52.094;5.232;2022-09-20T03:39:47;102177.0;;;10.87;96.85
63954;BME280;50128;52.094;5.232;2022-09-20T03:42:47;102181.0;;;10.83;96.37
63954;BME280;50128;52.094;5.232;2022-09-20T03:44:40;102184.0;;;10.89;97.06
63954;BME280;50128;52.094;5.232;2022-09-20T03:46:43;102184.0;;;10.95;97.37
63954;BME280;50128;52.094;5.232;2022-09-20T03:48:34;102180.0;;;10.87;97.27
63954;BME280;50128;52.094;5.232;2022-09-20T03:50:34;102180.0;;;10.8;97.68
63954;BME280;50128;52.094;5.232;2022-09-20T03:52:44;102180.0;;;10.73;98.18
63954;BME280;50128;52.094;5.232;2022-09-20T03:54:38;102174.0;;;10.71;97.68
63954;BME280;50128;52.094;5.232;2022-09-20T03:57:09;102174.0;;;10.68;97.78
63954;BME280;50128;52.094;5.232;2022-09-20T03:59:05;102174.0;;;10.68;98.12
63954;BME280;50128;52.094;5.232;2022-09-20T04:00:59;102176.0;;;10.71;98.12
63954;BME280;50128;52.094;5.232;2022-09-20T04:02:57;102178.0;;;10.85;98.21
63954;BME280;50128;52.094;5.232;2022-09-20T04:04:41;102177.0;;;10.83;98.43
63954;BME280;50128;52.094;5.232;2022-09-20T04:09:24;102176.0;;;10.85;98.82
63954;BME280;50128;52.094;5.232;2022-09-20T04:12:26;102177.0;;;10.89;98.59
63954;BME280;50128;52.094;5.232;2022-09-20T04:14:11;102175.0;;;10.9;98.27
63954;BME280;50128;52.094;5.232;2022-09-20T04:16:08;102175.0;;;10.85;98.81
63954;BME280;50128;52.094;5.232;2022-09-20T04:18:06;102181.0;;;10.91;98.62
63954;BME280;50128;52.094;5.232;2022-09-20T04:19:57;102180.0;;;10.94;98.69
63954;BME280;50128;52.094;5.232;2022-09-20T04:21:40;102175.0;;;10.83;98.5
63954;BME280;50128;52.094;5.232;2022-09-20T04:23:29;102176.0;;;10.8;98.18
63954;BME280;50128;52.094;5.232;2022-09-20T04:27:11;102181.0;;;10.78;98.62
63954;BME280;50128;52.094;5.232;2022-09-20T04:28:54;102178.0;;;10.8;98.49
63954;BME280;50128;52.094;5.232;2022-09-20T04:30:38;102178.0;;;10.8;99.02
63954;BME280;50128;52.094;5.232;2022-09-20T04:32:20;102176.0;;;10.84;98.75
63954;BME280;50128;52.094;5.232;2022-09-20T04:34:01;102176.0;;;10.83;99.12
63954;BME280;50128;52.094;5.232;2022-09-20T04:38:38;102181.0;;;10.95;98.41
63954;BME280;50128;52.094;5.232;2022-09-20T04:40:27;102181.0;;;11.02;98.72
63954;BME280;50128;52.094;5.232;2022-09-20T04:42:34;102185.0;;;11.06;98.43
63954;BME280;50128;52.094;5.232;2022-09-20T04:45:31;102184.0;;;11.04;98.73
63954;BME280;50128;52.094;5.232;2022-09-20T04:46:44;102184.0;;;11.04;98.73
63954;BME280;50128;52.094;5.232;2022-09-20T04:48:45;102186.0;;;11.04;98.9
63954;BME280;50128;52.094;5.232;2022-09-20T04:52:18;102186.0;;;10.99;98.4
63954;BME280;50128;52.094;5.232;2022-09-20T04:58:33;102186.0;;;10.94;98.34
63954;BME280;50128;52.094;5.232;2022-09-20T05:00:17;102192.0;;;10.86;98.58
63954;BME280;50128;52.094;5.232;2022-09-20T05:05:38;102191.0;;;10.7;98.46
63954;BME280;50128;52.094;5.232;2022-09-20T05:12:36;102201.0;;;10.54;97.64
63954;BME280;50128;52.094;5.232;2022-09-20T05:17:43;102208.0;;;10.44;97.13
63954;BME280;50128;52.094;5.232;2022-09-20T05:20:43;102213.0;;;10.33;97.69
63954;BME280;50128;52.094;5.232;2022-09-20T05:21:28;102213.0;;;10.33;97.69
63954;BME280;50128;52.094;5.232;2022-09-20T05:23:33;102215.0;;;10.32;97.29
63954;BME280;50128;52.094;5.232;2022-09-20T05:25:38;102217.0;;;10.18;97.74
63954;BME280;50128;52.094;5.232;2022-09-20T05:27:47;102218.0;;;10.14;97.21
63954;BME280;50128;52.094;5.232;2022-09-20T05:29:30;102225.0;;;10.09;98.01
63954;BME280;50128;52.094;5.232;2022-09-20T05:31:15;102220.0;;;10.06;98.03
63954;BME280;50128;52.094;5.232;2022-09-20T05:33:09;102223.0;;;10.01;97.89
63954;BME280;50128;52.094;5.232;2022-09-20T05:34:53;102218.0;;;9.98;97.55
63954;BME280;50128;52.094;5.232;2022-09-20T05:36:42;102220.0;;;10.01;97.76
63954;BME280;50128;52.094;5.232;2022-09-20T05:40:18;102220.0;;;9.98;98.11
63954;BME280;50128;52.094;5.232;2022-09-20T05:42:08;102228.0;;;9.98;98.29
63954;BME280;50128;52.094;5.232;2022-09-20T05:43:53;102226.0;;;9.98;98.68
63954;BME280;50128;52.094;5.232;2022-09-20T05:46:13;102232.0;;;9.96;98.8
63954;BME280;50128;52.094;5.232;2022-09-20T05:47:55;102222.0;;;9.96;98.67
63954;BME280;50128;52.094;5.232;2022-09-20T05:49:43;102231.0;;;9.96;97.69
63954;BME280;50128;52.094;5.232;2022-09-20T05:51:39;102230.0;;;9.97;97.56
63954;BME280;50128;52.094;5.232;2022-09-20T05:53:43;102230.0;;;9.91;98.18
63954;BME280;50128;52.094;5.232;2022-09-20T05:56:02;102232.0;;;9.91;98.66
63954;BME280;50128;52.094;5.232;2022-09-20T05:57:54;102232.0;;;9.89;98.4
63954;BME280;50128;52.094;5.232;2022-09-20T05:59:47;102233.0;;;9.92;98.2
63954;BME280;50128;52.094;5.232;2022-09-20T06:03:22;102235.0;;;9.89;98.6
63954;BME280;50128;52.094;5.232;2022-09-20T06:05:12;102234.0;;;9.86;98.65
63954;BME280;50128;52.094;5.232;2022-09-20T06:06:54;102235.0;;;9.83;98.43
63954;BME280;50128;52.094;5.232;2022-09-20T06:08:54;102238.0;;;9.89;98.52
63954;BME280;50128;52.094;5.232;2022-09-20T06:10:59;102234.0;;;9.94;98.85
63954;BME280;50128;52.094;5.232;2022-09-20T06:13:31;102234.0;;;9.97;98.37
63954;BME280;50128;52.094;5.232;2022-09-20T06:15:24;102238.0;;;9.99;99.03
63954;BME280;50128;52.094;5.232;2022-09-20T06:17:12;102237.0;;;10.02;99.81
63954;BME280;50128;52.094;5.232;2022-09-20T06:18:59;102242.0;;;10.01;99.57
63954;BME280;50128;52.094;5.232;2022-09-20T06:20:47;102242.0;;;10.0;99.75
63954;BME280;50128;52.094;5.232;2022-09-20T06:24:20;102238.0;;;10.06;99.52
63954;BME280;50128;52.094;5.232;2022-09-20T06:26:09;102242.0;;;10.08;99.57
63954;BME280;50128;52.094;5.232;2022-09-20T06:27:53;102242.0;;;10.11;99.65
63954;BME280;50128;52.094;5.232;2022-09-20T06:29:33;102242.0;;;10.16;100.0
63954;BME280;50128;52.094;5.232;2022-09-20T06:31:11;102240.0;;;10.26;100.0
63954;BME280;50128;52.094;5.232;2022-09-20T06:34:34;102248.0;;;10.46;99.54
63954;BME280;50128;52.094;5.232;2022-09-20T06:41:58;102262.0;;;10.83;99.32
63954;BME280;50128;52.094;5.232;2022-09-20T06:43:35;102258.0;;;10.82;99.02
63954;BME280;50128;52.094;5.232;2022-09-20T06:46:48;102262.0;;;10.86;99.13
63954;BME280;50128;52.094;5.232;2022-09-20T06:48:24;102267.0;;;11.04;98.32
63954;BME280;50128;52.094;5.232;2022-09-20T06:50:00;102263.0;;;11.04;98.58
63954;BME280;50128;52.094;5.232;2022-09-20T06:53:15;102264.0;;;11.36;97.79
63954;BME280;50128;52.094;5.232;2022-09-20T06:54:54;102264.0;;;11.3;98.53
63954;BME280;50128;52.094;5.232;2022-09-20T06:56:32;102263.0;;;11.34;99.36
63954;BME280;50128;52.094;5.232;2022-09-20T06:58:09;102265.0;;;11.57;98.9
63954;BME280;50128;52.094;5.232;2022-09-20T07:01:22;102258.0;;;11.68;98.77
63954;BME280;50128;52.094;5.232;2022-09-20T07:02:58;102258.0;;;11.71;98.62
63954;BME280;50128;52.094;5.232;2022-09-20T07:04:35;102255.0;;;11.86;98.9
63954;BME280;50128;52.094;5.232;2022-09-20T07:07:56;102248.0;;;11.93;99.53
63954;BME280;50128;52.094;5.232;2022-09-20T07:09:33;102248.0;;;12.12;99.24
63954;BME280;50128;52.094;5.232;2022-09-20T07:11:11;102248.0;;;12.27;98.77
63954;BME280;50128;52.094;5.232;2022-09-20T07:12:50;102249.0;;;12.36;98.77
63954;BME280;50128;52.094;5.232;2022-09-20T07:16:05;102252.0;;;12.48;98.58
63954;BME280;50128;52.094;5.232;2022-09-20T07:17:43;102257.0;;;12.65;98.41
63954;BME280;50128;52.094;5.232;2022-09-20T07:19:22;102255.0;;;12.77;98.03
63954;BME280;50128;52.094;5.232;2022-09-20T07:22:35;102251.0;;;12.81;97.74
63954;BME280;50128;52.094;5.232;2022-09-20T07:24:13;102250.0;;;13.14;97.14
63954;BME280;50128;52.094;5.232;2022-09-20T07:25:50;102253.0;;;13.22;95.99
63954;BME280;50128;52.094;5.232;2022-09-20T07:27:28;102255.0;;;13.39;93.8
63954;BME280;50128;52.094;5.232;2022-09-20T07:30:44;102255.0;;;13.36;92.23
63954;BME280;50128;52.094;5.232;2022-09-20T07:32:20;102255.0;;;13.54;91.55
63954;BME280;50128;52.094;5.232;2022-09-20T07:33:57;102261.0;;;13.59;89.33
63954;BME280;50128;52.094;5.232;2022-09-20T07:37:15;102269.0;;;13.45;88.51
63954;BME280;50128;52.094;5.232;2022-09-20T07:38:52;102270.0;;;13.53;87.45
63954;BME280;50128;52.094;5.232;2022-09-20T07:40:28;102276.0;;;13.68;87.63
63954;BME280;50128;52.094;5.232;2022-09-20T07:42:05;102281.0;;;13.83;86.9
63954;BME280;50128;52.094;5.232;2022-09-20T07:45:17;102289.0;;;13.85;85.99
63954;BME280;50128;52.094;5.232;2022-09-20T07:46:55;102296.0;;;13.99;84.9
63954;BME280;50128;52.094;5.232;2022-09-20T07:48:34;102301.0;;;14.01;82.53
63954;BME280;50128;52.094;5.232;2022-09-20T07:51:47;102303.0;;;13.91;82.25
63954;BME280;50128;52.094;5.232;2022-09-20T07:53:25;102305.0;;;14.0;81.95
63954;BME280;50128;52.094;5.232;2022-09-20T07:55:01;102306.0;;;14.02;82.08
63954;BME280;50128;52.094;5.232;2022-09-20T07:58:13;102305.0;;;13.9;82.93
63954;BME280;50128;52.094;5.232;2022-09-20T07:59:50;102311.0;;;13.89;82.63
63954;BME280;50128;52.094;5.232;2022-09-20T08:01:26;102311.0;;;13.82;82.73
63954;BME280;50128;52.094;5.232;2022-09-20T08:03:05;102309.0;;;13.7;83.51
63954;BME280;50128;52.094;5.232;2022-09-20T08:06:20;102313.0;;;13.78;83.89
63954;BME280;50128;52.094;5.232;2022-09-20T08:07:58;102316.0;;;13.85;83.58
63954;BME280;50128;52.094;5.232;2022-09-20T08:09:34;102315.0;;;13.65;84.51
63954;BME280;50128;52.094;5.232;2022-09-20T08:12:50;102323.0;;;13.6;85.22
63954;BME280;50128;52.094;5.232;2022-09-20T08:14:26;102330.0;;;13.8;82.25
63954;BME280;50128;52.094;5.232;2022-09-20T08:16:04;102328.0;;;13.77;81.91
63954;BME280;50128;52.094;5.232;2022-09-20T08:17:41;102334.0;;;13.79;82.52
63954;BME280;50128;52.094;5.232;2022-09-20T08:21:02;102334.0;;;13.8;82.59
63954;BME280;50128;52.094;5.232;2022-09-20T08:22:42;102334.0;;;13.73;82.95
63954;BME280;50128;52.094;5.232;2022-09-20T08:24:18;102335.0;;;13.82;83.88
63954;BME280;50128;52.094;5.232;2022-09-20T08:27:32;102342.0;;;13.96;83.67
63954;BME280;50128;52.094;5.232;2022-09-20T08:29:08;102335.0;;;14.12;82.61
63954;BME280;50128;52.094;5.232;2022-09-20T08:30:45;102337.0;;;14.1;82.68
63954;BME280;50128;52.094;5.232;2022-09-20T08:32:22;102339.0;;;14.24;79.75
63954;BME280;50128;52.094;5.232;2022-09-20T08:35:39;102340.0;;;14.29;79.33
63954;BME280;50128;52.094;5.232;2022-09-20T08:38:52;102355.0;;;14.49;77.05
63954;BME280;50128;52.094;5.232;2022-09-20T08:42:13;102352.0;;;14.58;76.47
63954;BME280;50128;52.094;5.232;2022-09-20T08:44:03;102346.0;;;14.72;75.48
63954;BME280;50128;52.094;5.232;2022-09-20T08:45:41;102346.0;;;14.66;75.33
63954;BME280;50128;52.094;5.232;2022-09-20T08:47:21;102348.0;;;14.71;75.13
63954;BME280;50128;52.094;5.232;2022-09-20T08:50:38;102347.0;;;14.68;74.81
63954;BME280;50128;52.094;5.232;2022-09-20T08:52:16;102348.0;;;14.64;78.34
63954;BME280;50128;52.094;5.232;2022-09-20T08:53:55;102346.0;;;14.53;77.44
63954;BME280;50128;52.094;5.232;2022-09-20T08:55:33;102342.0;;;14.69;77.47
63954;BME280;50128;52.094;5.232;2022-09-20T08:58:52;102341.0;;;14.64;77.64
63954;BME280;50128;52.094;5.232;2022-09-20T09:00:30;102340.0;;;14.62;77.89
63954;BME280;50128;52.094;5.232;2022-09-20T09:02:14;102338.0;;;14.68;77.08
63954;BME280;50128;52.094;5.232;2022-09-20T09:03:51;102338.0;;;14.7;77.0
63954;BME280;50128;52.094;5.232;2022-09-20T09:07:14;102337.0;;;14.71;78.16
63954;BME280;50128;52.094;5.232;2022-09-20T09:08:54;102337.0;;;14.68;76.52
63954;BME280;50128;52.094;5.232;2022-09-20T09:10:37;102339.0;;;14.68;75.75
63954;BME280;50128;52.094;5.232;2022-09-20T09:12:17;102343.0;;;14.75;77.28
63954;BME280;50128;52.094;5.232;2022-09-20T09:15:42;102338.0;;;14.67;74.98
63954;BME280;50128;52.094;5.232;2022-09-20T09:17:29;102340.0;;;14.7;75.38
63954;BME280;50128;52.094;5.232;2022-09-20T09:19:25;102340.0;;;14.72;73.89
63954;BME280;50128;52.094;5.232;2022-09-20T09:21:22;102345.0;;;14.64;74.41
63954;BME280;50128;52.094;5.232;2022-09-20T09:23:02;102347.0;;;14.68;74.64
63954;BME280;50128;52.094;5.232;2022-09-20T09:24:38;102351.0;;;14.83;74.25
63954;BME280;50128;52.094;5.232;2022-09-20T09:27:57;102355.0;;;14.88;76.36
63954;BME280;50128;52.094;5.232;2022-09-20T09:29:34;102358.0;;;14.82;76.58
63954;BME280;50128;52.094;5.232;2022-09-20T09:31:24;102363.0;;;14.93;75.25
63954;BME280;50128;52.094;5.232;2022-09-20T09:33:23;102363.0;;;15.03;74.63
63954;BME280;50128;52.094;5.232;2022-09-20T09:35:24;102363.0;;;15.04;75.44
63954;BME280;50128;52.094;5.232;2022-09-20T09:38:38;102367.0;;;14.94;75.27
63954;BME280;50128;52.094;5.232;2022-09-20T09:40:17;102367.0;;;14.86;74.11
63954;BME280;50128;52.094;5.232;2022-09-20T09:41:55;102368.0;;;15.0;73.42
63954;BME280;50128;52.094;5.232;2022-09-20T09:43:35;102367.0;;;15.0;71.92
63954;BME280;50128;52.094;5.232;2022-09-20T09:47:22;102364.0;;;14.85;71.33
63954;BME280;50128;52.094;5.232;2022-09-20T09:49:06;102372.0;;;15.1;73.61
63954;BME280;50128;52.094;5.232;2022-09-20T09:50:44;102377.0;;;15.15;71.7
63954;BME280;50128;52.094;5.232;2022-09-20T09:52:25;102377.0;;;15.08;70.16
63954;BME280;50128;52.094;5.232;2022-09-20T09:54:03;102373.0;;;15.14;71.2
63954;BME280;50128;52.094;5.232;2022-09-20T09:59:11;102385.0;;;14.79;72.92
63954;BME280;50128;52.094;5.232;2022-09-20T10:00:59;102387.0;;;14.56;73.13
63954;BME280;50128;52.094;5.232;2022-09-20T10:03:02;102380.0;;;14.49;75.19
63954;BME280;50128;52.094;5.232;2022-09-20T10:06:17;102382.0;;;14.55;75.31
63954;BME280;50128;52.094;5.232;2022-09-20T10:08:09;102382.0;;;14.45;74.45
63954;BME280;50128;52.094;5.232;2022-09-20T10:10:01;102380.0;;;14.42;74.52
63954;BME280;50128;52.094;5.232;2022-09-20T10:11:54;102376.0;;;14.44;73.8
63954;BME280;50128;52.094;5.232;2022-09-20T10:13:40;102381.0;;;14.44;71.62
63954;BME280;50128;52.094;5.232;2022-09-20T10:15:29;102377.0;;;14.59;72.33
63954;BME280;50128;52.094;5.232;2022-09-20T10:17:24;102375.0;;;14.65;70.31
63954;BME280;50128;52.094;5.232;2022-09-20T10:19:09;102361.0;;;14.84;69.91
63954;BME280;50128;52.094;5.232;2022-09-20T10:22:48;102360.0;;;14.93;70.05
63954;BME280;50128;52.094;5.232;2022-09-20T10:24:42;102355.0;;;14.97;68.36
63954;BME280;50128;52.094;5.232;2022-09-20T10:26:35;102350.0;;;15.08;67.14
63954;BME280;50128;52.094;5.232;2022-09-20T10:28:24;102347.0;;;15.08;69.5
63954;BME280;50128;52.094;5.232;2022-09-20T10:30:11;102345.0;;;15.08;64.23
63954;BME280;50128;52.094;5.232;2022-09-20T10:31:58;102342.0;;;15.19;63.58
63954;BME280;50128;52.094;5.232;2022-09-20T10:33:49;102336.0;;;15.39;63.41
63954;BME280;50128;52.094;5.232;2022-09-20T10:37:42;102340.0;;;15.43;60.89
63954;BME280;50128;52.094;5.232;2022-09-20T10:39:30;102337.0;;;15.54;63.88
63954;BME280;50128;52.094;5.232;2022-09-20T10:44:08;102344.0;;;15.63;59.22
63954;BME280;50128;52.094;5.232;2022-09-20T10:45:55;102343.0;;;15.67;60.71
63954;BME280;50128;52.094;5.232;2022-09-20T10:47:47;102340.0;;;15.84;61.12
63954;BME280;50128;52.094;5.232;2022-09-20T10:49:33;102346.0;;;15.85;60.54
63954;BME280;50128;52.094;5.232;2022-09-20T10:51:19;102351.0;;;15.95;61.13
63954;BME280;50128;52.094;5.232;2022-09-20T10:53:15;102355.0;;;16.21;62.31
63954;BME280;50128;52.094;5.232;2022-09-20T10:55:14;102349.0;;;16.39;62.82
63954;BME280;50128;52.094;5.232;2022-09-20T10:57:08;102349.0;;;16.22;63.12
63954;BME280;50128;52.094;5.232;2022-09-20T10:59:12;102353.0;;;16.28;60.05
63954;BME280;50128;52.094;5.232;2022-09-20T11:01:49;102355.0;;;16.36;62.31
63954;BME280;50128;52.094;5.232;2022-09-20T11:03:44;102356.0;;;16.37;61.61
63954;BME280;50128;52.094;5.232;2022-09-20T11:05:42;102358.0;;;16.4;58.77
63954;BME280;50128;52.094;5.232;2022-09-20T11:07:33;102358.0;;;16.43;60.43
63954;BME280;50128;52.094;5.232;2022-09-20T11:09:18;102355.0;;;16.28;60.63
63954;BME280;50128;52.094;5.232;2022-09-20T11:12:46;102357.0;;;16.31;60.68
63954;BME280;50128;52.094;5.232;2022-09-20T11:14:36;102355.0;;;16.36;59.66
63954;BME280;50128;52.094;5.232;2022-09-20T11:16:16;102359.0;;;16.28;61.45
63954;BME280;50128;52.094;5.232;2022-09-20T11:18:01;102362.0;;;16.52;60.02
63954;BME280;50128;52.094;5.232;2022-09-20T11:19:49;102362.0;;;16.61;58.32
63954;BME280;50128;52.094;5.232;2022-09-20T11:23:15;102364.0;;;16.56;59.57
63954;BME280;50128;52.094;5.232;2022-09-20T11:24:57;102359.0;;;16.56;60.82
63954;BME280;50128;52.094;5.232;2022-09-20T11:26:42;102364.0;;;16.52;59.46
63954;BME280;50128;52.094;5.232;2022-09-20T11:28:24;102363.0;;;16.46;61.1
63954;BME280;50128;52.094;5.232;2022-09-20T11:31:49;102364.0;;;16.4;59.72
63954;BME280;50128;52.094;5.232;2022-09-20T11:33:34;102358.0;;;16.41;61.06
63954;BME280;50128;52.094;5.232;2022-09-20T11:35:23;102368.0;;;16.52;61.87
63954;BME280;50128;52.094;5.232;2022-09-20T11:37:02;102360.0;;;16.56;60.57
63954;BME280;50128;52.094;5.232;2022-09-20T11:38:42;102361.0;;;16.55;60.95
63954;BME280;50128;52.094;5.232;2022-09-20T11:42:05;102357.0;;;16.62;61.75
63954;BME280;50128;52.094;5.232;2022-09-20T11:43:47;102358.0;;;16.72;63.05
63954;BME280;50128;52.094;5.232;2022-09-20T11:45:24;102357.0;;;16.7;60.99
63954;BME280;50128;52.094;5.232;2022-09-20T11:47:05;102356.0;;;16.75;61.33
63954;BME280;50128;52.094;5.232;2022-09-20T11:50:49;102359.0;;;16.78;59.68